Aviation Digital Data Service (ADDS)

Output produced by METARs form (0219 UTC 23 September 2018)
found at http://aviationweather.gov/metar/data/
 
KHDC 222324Z 2300/2324 VRB05KT P6SM VCSH SCT030 BKN110 
     FM230300 00000KT P6SM FEW035 SCT110 
     FM230900 VRB03KT P6SM BKN025 BKN250 
     FM231800 15005KT P6SM SHRA VCTS SCT030CB BKN045